createdAt,value
2023-04-29T00:03:29.518Z,64.74
2023-04-29T00:08:56.069Z,65.21
2023-04-29T00:13:59.453Z,65.24
2023-04-29T00:19:02.722Z,65.84
2023-04-29T00:24:06.294Z,65.99
2023-04-29T00:29:09.608Z,66.04
2023-04-29T00:34:13.188Z,66.29
2023-04-29T00:39:16.540Z,66.12
2023-04-29T00:44:19.909Z,66.24
2023-04-29T00:49:23.454Z,66.12
2023-04-29T00:54:26.855Z,65.96
2023-04-29T00:59:32.505Z,66.45
2023-04-29T01:04:36.354Z,66.63
2023-04-29T01:10:25.215Z,66.95
2023-04-29T01:15:39.833Z,67.47
2023-04-29T01:20:46.233Z,67.56
2023-04-29T01:25:49.824Z,67.66
2023-04-29T01:31:19.866Z,68.04
2023-04-29T01:36:35.668Z,68.28
2023-04-29T01:41:59.182Z,68.47
2023-04-29T01:47:10.591Z,68.42
2023-04-29T01:52:19.265Z,68.19
2023-04-29T01:57:32.545Z,68.26
2023-04-29T02:02:55.087Z,68.50
2023-04-29T02:08:20.754Z,68.37
2023-04-29T02:13:24.450Z,68.42
2023-04-29T02:19:01.361Z,68.71
2023-04-29T02:24:04.942Z,68.83
2023-04-29T02:29:09.210Z,68.85
2023-04-29T02:34:24.307Z,69.16
2023-04-29T02:39:48.333Z,69.13
2023-04-29T02:44:51.978Z,69.31
2023-04-29T02:49:55.603Z,69.31
2023-04-29T02:54:58.923Z,69.28
2023-04-29T03:00:02.986Z,69.41
2023-04-29T03:05:06.890Z,69.37
2023-04-29T03:10:12.605Z,69.38
2023-04-29T03:15:16.122Z,69.63
2023-04-29T03:20:20.632Z,69.74
2023-04-29T03:25:24.106Z,70.09
2023-04-29T03:30:28.360Z,69.74
2023-04-29T03:35:34.183Z,69.65
2023-04-29T03:40:59.171Z,70.07
2023-04-29T03:46:02.695Z,69.54
2023-04-29T03:51:06.252Z,69.62
2023-04-29T03:56:09.888Z,69.35
2023-04-29T04:01:33.855Z,69.26
2023-04-29T04:06:37.558Z,69.10
2023-04-29T04:11:42.272Z,69.19
2023-04-29T04:16:45.711Z,69.16
2023-04-29T04:21:49.549Z,69.31
2023-04-29T04:26:53.005Z,69.14
2023-04-29T04:32:19.237Z,69.31
2023-04-29T04:37:23.279Z,69.20
2023-04-29T04:42:30.822Z,68.93
2023-04-29T04:47:34.876Z,68.46
2023-04-29T04:52:42.845Z,67.92
2023-04-29T04:57:54.571Z,66.22
2023-04-29T05:02:58.502Z,65.49
2023-04-29T05:08:03.355Z,64.81
2023-04-29T05:13:12.103Z,64.20
2023-04-29T05:18:16.043Z,63.65
2023-04-29T05:23:19.560Z,62.60
2023-04-29T05:28:23.438Z,61.88
2023-04-29T05:33:29.944Z,61.68
2023-04-29T05:38:33.808Z,60.38
2023-04-29T05:43:41.822Z,59.16
2023-04-29T05:48:45.439Z,58.42
2023-04-29T05:53:49.517Z,57.70
2023-04-29T05:58:53.334Z,56.71
2023-04-29T06:03:57.078Z,55.35
2023-04-29T06:09:27.088Z,54.40
2023-04-29T06:14:32.902Z,53.47
2023-04-29T06:19:36.573Z,52.21
2023-04-29T06:24:39.957Z,51.96
2023-04-29T06:29:44.096Z,51.45
2023-04-29T06:34:47.848Z,51.43
2023-04-29T06:40:04.033Z,49.21
2023-04-29T06:45:39.069Z,48.96
2023-04-29T06:50:56.664Z,49.42
2023-04-29T06:56:00.062Z,48.65
2023-04-29T07:01:04.386Z,48.37
2023-04-29T07:06:07.759Z,47.65
2023-04-29T07:11:11.165Z,47.72
2023-04-29T07:16:22.264Z,47.66
2023-04-29T07:21:25.771Z,47.49
2023-04-29T07:26:29.787Z,48.20
2023-04-29T07:31:38.234Z,47.62
2023-04-29T07:36:41.926Z,48.29
2023-04-29T07:41:45.850Z,48.18
2023-04-29T07:46:49.240Z,48.03
2023-04-29T07:51:52.854Z,47.43
2023-04-29T07:56:58.491Z,47.34
2023-04-29T08:02:01.909Z,46.97
2023-04-29T08:07:05.564Z,46.23
2023-04-29T08:12:09.158Z,46.78
2023-04-29T08:17:12.385Z,47.35
2023-04-29T08:22:16.112Z,46.66
2023-04-29T08:27:20.568Z,46.43
2023-04-29T08:32:23.903Z,45.94
2023-04-29T08:37:27.880Z,46.18
2023-04-29T08:42:37.966Z,46.95
2023-04-29T08:47:42.456Z,46.58
2023-04-29T08:52:45.826Z,45.61
2023-04-29T08:57:50.956Z,44.77
2023-04-29T09:02:57.947Z,44.63
2023-04-29T09:08:03.396Z,45.24
2023-04-29T09:13:06.977Z,44.58
2023-04-29T09:18:10.424Z,45.12
2023-04-29T09:23:13.677Z,44.74
2023-04-29T09:28:17.527Z,44.40
2023-04-29T09:33:20.960Z,44.45
2023-04-29T09:38:24.566Z,44.34
2023-04-29T09:43:27.870Z,44.30
2023-04-29T09:48:34.349Z,44.78
2023-04-29T09:53:39.035Z,45.37
2023-04-29T09:58:42.515Z,45.01
2023-04-29T10:03:48.981Z,44.16
2023-04-29T10:08:52.609Z,44.91
2023-04-29T10:13:56.432Z,44.88
2023-04-29T10:19:04.096Z,44.57
2023-04-29T10:24:10.268Z,45.01
2023-04-29T10:29:16.006Z,44.49
2023-04-29T10:34:20.113Z,44.05
2023-04-29T10:39:40.365Z,44.64
2023-04-29T10:45:21.632Z,43.81
2023-04-29T10:50:28.085Z,44.53
2023-04-29T10:55:35.926Z,44.13
2023-04-29T11:00:39.343Z,44.26
2023-04-29T11:05:42.816Z,44.53
2023-04-29T11:10:46.414Z,45.17
2023-04-29T11:15:51.955Z,44.70
2023-04-29T11:21:07.466Z,43.88
2023-04-29T11:26:11.179Z,43.45
2023-04-29T11:31:14.499Z,44.08
2023-04-29T11:36:17.773Z,43.69
2023-04-29T11:41:22.594Z,44.13
2023-04-29T11:46:28.407Z,44.02
2023-04-29T11:51:32.933Z,43.44
2023-04-29T11:56:38.396Z,43.14
2023-04-29T12:01:42.282Z,43.91
2023-04-29T12:06:46.594Z,43.63
2023-04-29T12:11:51.139Z,43.76
2023-04-29T12:16:54.406Z,44.07
2023-04-29T12:22:03.039Z,44.16
2023-04-29T12:27:11.025Z,44.57
2023-04-29T12:32:18.313Z,43.89
2023-04-29T12:37:23.704Z,43.94
2023-04-29T12:42:33.652Z,42.80
2023-04-29T12:47:39.617Z,43.54
2023-04-29T12:52:42.977Z,42.75
2023-04-29T12:57:46.238Z,42.42
2023-04-29T13:02:49.680Z,42.44
2023-04-29T13:07:53.222Z,42.69
2023-04-29T13:12:56.982Z,43.07
2023-04-29T13:18:00.729Z,43.04
2023-04-29T13:23:04.186Z,42.89
2023-04-29T13:28:07.845Z,43.12
2023-04-29T13:33:12.717Z,43.70
2023-04-29T13:38:17.913Z,43.35
2023-04-29T13:43:32.776Z,43.03
2023-04-29T13:54:41.376Z,43.50
2023-04-29T14:04:15.184Z,43.66
2023-04-29T14:09:20.229Z,42.92
2023-04-29T14:14:23.469Z,42.42
2023-04-29T14:19:26.841Z,42.61
2023-04-29T14:24:30.110Z,42.65
2023-04-29T14:29:33.328Z,43.17
2023-04-29T14:34:36.856Z,43.45
2023-04-29T14:39:40.264Z,43.42
2023-04-29T14:44:43.541Z,43.66
2023-04-29T14:49:47.031Z,43.19
2023-04-29T14:54:50.508Z,43.70
2023-04-29T14:59:53.959Z,43.92
2023-04-29T15:04:57.420Z,43.77
2023-04-29T15:10:00.972Z,44.10
2023-04-29T15:15:05.066Z,43.70
2023-04-29T15:20:09.787Z,43.91
2023-04-29T15:25:13.120Z,43.34
2023-04-29T15:30:17.478Z,43.96
2023-04-29T15:35:21.158Z,43.99
2023-04-29T15:40:24.637Z,43.36
2023-04-29T15:45:27.976Z,43.93
2023-04-29T15:50:31.308Z,44.19
2023-04-29T15:55:35.547Z,44.15
2023-04-29T16:00:39.063Z,44.18
2023-04-29T16:05:42.421Z,44.42
2023-04-29T16:10:46.174Z,44.78
2023-04-29T16:15:49.586Z,45.11
2023-04-29T16:20:53.097Z,45.79
2023-04-29T16:25:56.357Z,46.32
2023-04-29T16:30:59.629Z,47.03
2023-04-29T16:36:03.173Z,47.14
2023-04-29T16:41:07.462Z,47.13
2023-04-29T16:46:10.877Z,47.37
2023-04-29T16:51:14.211Z,47.71
2023-04-29T16:56:17.467Z,48.06
2023-04-29T17:01:20.914Z,48.34
2023-04-29T17:06:24.534Z,48.57
2023-04-29T17:11:42.964Z,48.82
2023-04-29T17:16:48.794Z,49.93
2023-04-29T17:22:12.732Z,50.75
2023-04-29T17:27:16.157Z,51.22
2023-04-29T17:32:28.261Z,51.77
2023-04-29T17:37:31.657Z,52.50
2023-04-29T17:42:34.948Z,53.11
2023-04-29T17:47:38.163Z,53.72
2023-04-29T17:52:41.773Z,54.27
2023-04-29T17:57:44.980Z,55.02
2023-04-29T18:02:48.352Z,55.56
2023-04-29T18:07:51.695Z,55.98
2023-04-29T18:12:55.109Z,56.62
2023-04-29T18:17:58.413Z,57.35
2023-04-29T18:23:01.869Z,58.19
2023-04-29T18:28:24.236Z,58.45
2023-04-29T18:33:31.076Z,58.73
2023-04-29T18:38:34.535Z,59.45
2023-04-29T18:43:38.123Z,60.77
2023-04-29T18:48:43.816Z,60.75
2023-04-29T18:53:47.323Z,60.31
2023-04-29T18:58:50.726Z,60.69
2023-04-29T19:03:54.218Z,60.83
2023-04-29T19:08:57.443Z,61.25
2023-04-29T19:14:00.921Z,61.14
2023-04-29T19:19:04.722Z,61.88
2023-04-29T19:24:08.228Z,61.96
2023-04-29T19:29:11.758Z,62.30
2023-04-29T19:34:14.931Z,63.90
2023-04-29T19:39:18.723Z,64.63
2023-04-29T19:44:23.036Z,65.10
2023-04-29T19:49:26.431Z,64.69
2023-04-29T19:54:30.075Z,64.94
2023-04-29T19:59:33.630Z,65.24
2023-04-29T20:04:36.937Z,64.62
2023-04-29T20:09:40.452Z,64.33
2023-04-29T20:14:43.837Z,64.13
2023-04-29T20:19:47.087Z,64.35
2023-04-29T20:24:50.557Z,64.16
2023-04-29T20:29:54.017Z,64.27
2023-04-29T20:34:57.587Z,64.48
2023-04-29T20:40:00.777Z,64.97
2023-04-29T20:45:06.316Z,65.51
2023-04-29T20:50:10.315Z,66.53
2023-04-29T20:55:13.601Z,67.37
2023-04-29T21:00:16.875Z,67.27
2023-04-29T21:05:20.160Z,67.20
2023-04-29T21:10:23.760Z,66.93
2023-04-29T21:15:29.399Z,67.39
2023-04-29T21:20:32.760Z,67.43
2023-04-29T21:25:35.980Z,67.59
2023-04-29T21:30:39.414Z,68.48
2023-04-29T21:35:43.323Z,68.55
2023-04-29T21:40:48.004Z,68.87
2023-04-29T21:45:53.685Z,69.25
2023-04-29T21:51:02.642Z,69.90
2023-04-29T21:56:06.707Z,70.33
2023-04-29T22:01:29.052Z,71.00
2023-04-29T22:06:33.618Z,70.86
2023-04-29T22:11:37.192Z,71.26
2023-04-29T22:16:40.598Z,71.70
2023-04-29T22:21:43.896Z,72.17
2023-04-29T22:26:47.349Z,72.17
2023-04-29T22:31:53.592Z,72.30
2023-04-29T22:36:57.922Z,73.51
2023-04-29T22:42:01.197Z,72.97
2023-04-29T22:47:04.589Z,73.06
2023-04-29T22:52:08.024Z,74.07
2023-04-29T22:57:11.312Z,74.22
2023-04-29T23:02:16.004Z,74.17
2023-04-29T23:07:19.352Z,75.43
2023-04-29T23:12:22.662Z,78.06
2023-04-29T23:17:25.980Z,79.19
2023-04-29T23:22:29.088Z,80.61
2023-04-29T23:27:32.343Z,81.71
2023-04-29T23:32:35.662Z,83.15
2023-04-29T23:37:39.672Z,84.24
2023-04-29T23:42:42.841Z,85.30
2023-04-29T23:47:46.084Z,85.94
2023-04-29T23:52:49.337Z,86.07
2023-04-29T23:57:52.639Z,86.71
